logo
Search for airport 
image banner adimage banner adimage banner ad
image banner ad

OESH - Sharurah / Sharurah (Domestic)

Located in Sharurah, Saudi Arabia

ICAO - OESH, IATA - SHW

Data provided by Airmate  

General information

Coordinates: N17°28'1" E47°7'17"
Elevation is 2382 feet MSL.
 
View others Airports in Najran

Operational data

Special qualification required
Current time UTC:
Current local time:
Weather
METAR: OESH 170600Z 07007KT 3000 DU FEW040 27/11 Q1016 NOSIG
TAF: TAF OESH 162300Z 1700/1806 02006KT 7000 SCT040 TEMPO 1700/1714 05016KT 2000 BLDU PROB30 TEMPO 1703/1708 06026KT 0800 DS BECMG 1706/1708 05014KT FEW040 BECMG 1716/1718 02006KT
View NOTAMs / SUP AIP / TFR affecting this airport [VIEW]
Communications frequencies: [VIEW]

Runways:

RWY identifierQFULength (ft)Width (ft)SurfaceLDA (ft)
0885°11975148ASP
26265°11975148ASP

Airport contact information

Address: Sharurah Saudi Arabia

Satellite view of OESH